createdAt,value
2019-01-19T00:02:37.359Z,22.60
2019-01-19T00:05:10.674Z,20.33
2019-01-19T00:07:50.967Z,23.03
2019-01-19T00:10:28.014Z,21.80
2019-01-19T00:13:16.921Z,21.07
2019-01-19T00:16:04.683Z,20.27
2019-01-19T00:18:41.918Z,20.97
2019-01-19T00:21:28.535Z,23.63
2019-01-19T00:24:00.063Z,20.03
2019-01-19T00:26:40.264Z,22.07
2019-01-19T00:29:29.390Z,24.63
2019-01-19T00:32:03.835Z,21.40
2019-01-19T00:34:43.879Z,19.90
2019-01-19T00:37:15.402Z,23.77
2019-01-19T00:40:07.567Z,20.97
2019-01-19T00:42:39.078Z,21.13
2019-01-19T00:45:30.156Z,21.70
2019-01-19T00:48:07.676Z,21.43
2019-01-19T00:50:45.187Z,20.53
2019-01-19T00:53:22.492Z,20.50
2019-01-19T00:55:57.102Z,23.97
2019-01-19T00:58:28.612Z,21.10
2019-01-19T01:01:00.192Z,24.93
2019-01-19T01:03:31.770Z,24.23
2019-01-19T01:06:06.357Z,22.10
2019-01-19T01:09:07.697Z,23.63
2019-01-19T01:11:39.228Z,20.40
2019-01-19T01:14:25.373Z,23.03
2019-01-19T01:16:56.873Z,21.13
2019-01-19T01:19:52.412Z,22.40
2019-01-19T01:22:32.104Z,20.87
2019-01-19T01:25:09.295Z,19.67
2019-01-19T01:27:52.785Z,20.43
2019-01-19T01:30:35.895Z,19.97
2019-01-19T01:33:25.433Z,21.43
2019-01-19T01:36:16.156Z,19.37
2019-01-19T01:38:59.587Z,22.17
2019-01-19T01:41:46.048Z,19.00
2019-01-19T01:44:29.792Z,20.27
2019-01-19T01:47:07.222Z,20.00
2019-01-19T01:49:44.572Z,21.17
2019-01-19T01:52:30.943Z,20.53
2019-01-19T01:55:02.484Z,19.87
2019-01-19T01:57:32.455Z,21.40
2019-01-19T02:00:06.842Z,19.67
2019-01-19T02:02:54.697Z,25.83
2019-01-19T02:05:43.343Z,20.57
2019-01-19T02:08:17.868Z,19.97
2019-01-19T02:11:04.268Z,18.23
2019-01-19T02:13:56.499Z,19.20
2019-01-19T02:16:45.994Z,18.93
2019-01-19T02:19:17.529Z,21.10
2019-01-19T02:22:10.855Z,19.67
2019-01-19T02:24:42.360Z,19.33
2019-01-19T02:27:28.550Z,17.53
2019-01-19T02:30:09.011Z,17.43
2019-01-19T02:32:55.239Z,23.13
2019-01-19T02:35:35.524Z,20.53
2019-01-19T02:38:22.011Z,19.17
2019-01-19T02:40:59.035Z,19.43
2019-01-19T02:43:39.331Z,19.37
2019-01-19T02:46:19.459Z,18.60
2019-01-19T02:49:09.007Z,16.53
2019-01-19T02:51:55.401Z,17.10
2019-01-19T02:54:38.507Z,17.07
2019-01-19T02:57:12.625Z,17.53
2019-01-19T02:59:52.740Z,16.13
2019-01-19T03:02:26.938Z,15.03
2019-01-19T03:05:01.051Z,13.67
2019-01-19T03:07:44.323Z,13.87
2019-01-19T03:10:15.817Z,17.37
2019-01-19T03:12:49.994Z,14.70
2019-01-19T03:15:33.139Z,17.03
2019-01-19T03:18:29.791Z,15.73
2019-01-19T03:21:19.000Z,15.80
2019-01-19T03:24:22.968Z,18.17
2019-01-19T03:26:57.074Z,15.17
2019-01-19T03:29:37.452Z,14.73
2019-01-19T03:32:17.579Z,16.73
2019-01-19T03:35:05.344Z,16.77
2019-01-19T03:37:39.568Z,17.63
2019-01-19T03:40:37.918Z,16.87
2019-01-19T03:43:28.670Z,18.47
2019-01-19T03:46:32.885Z,19.73
2019-01-19T03:49:07.079Z,18.57
2019-01-19T03:51:44.495Z,14.03
2019-01-19T03:54:18.600Z,14.47
2019-01-19T03:56:53.095Z,16.10
2019-01-19T03:59:36.482Z,13.97
2019-01-19T04:02:22.948Z,15.43
2019-01-19T04:05:00.305Z,14.50
2019-01-19T04:07:43.731Z,14.57
2019-01-19T04:10:29.425Z,16.77
2019-01-19T04:13:09.595Z,17.00
2019-01-19T04:15:52.713Z,13.63
2019-01-19T04:18:24.459Z,14.57
2019-01-19T04:21:01.927Z,13.03
2019-01-19T04:23:30.792Z,14.63
2019-01-19T04:26:01.292Z,14.47
2019-01-19T04:28:29.981Z,13.97
2019-01-19T04:30:58.416Z,14.00
2019-01-19T04:33:26.844Z,14.90
2019-01-19T04:35:55.290Z,14.17
2019-01-19T04:38:23.716Z,14.30
2019-01-19T04:40:52.245Z,12.40
2019-01-19T04:43:20.678Z,13.67
2019-01-19T04:45:49.169Z,13.87
2019-01-19T04:48:19.336Z,12.83
2019-01-19T04:50:47.765Z,14.37
2019-01-19T04:53:16.216Z,20.37
2019-01-19T04:55:44.718Z,12.57
2019-01-19T04:58:13.241Z,12.67
2019-01-19T05:00:41.665Z,13.33
2019-01-19T05:03:10.178Z,12.87
2019-01-19T05:05:38.605Z,12.70
2019-01-19T05:08:07.051Z,13.97
2019-01-19T05:10:35.944Z,11.87
2019-01-19T05:13:04.549Z,12.13
2019-01-19T05:15:32.985Z,13.30
2019-01-19T05:18:01.620Z,12.83
2019-01-19T05:20:30.183Z,13.93
2019-01-19T05:22:58.635Z,16.90
2019-01-19T05:25:27.091Z,14.17
2019-01-19T05:27:55.526Z,13.20
2019-01-19T05:30:24.054Z,14.67
2019-01-19T05:32:52.550Z,10.90
2019-01-19T05:35:21.193Z,11.57
2019-01-19T05:37:49.712Z,11.30
2019-01-19T05:40:18.148Z,10.20
2019-01-19T05:42:46.592Z,10.97
2019-01-19T05:45:15.275Z,11.03
2019-01-19T05:47:43.843Z,11.97
2019-01-19T05:50:20.170Z,14.27
2019-01-19T05:52:48.677Z,11.37
2019-01-19T05:55:17.134Z,12.77
2019-01-19T05:57:45.563Z,11.80
2019-01-19T06:00:24.150Z,13.23
2019-01-19T06:02:52.581Z,13.03
2019-01-19T06:05:21.041Z,12.00
2019-01-19T06:07:49.532Z,12.53
2019-01-19T06:10:18.255Z,10.47
2019-01-19T06:12:46.760Z,11.93
2019-01-19T06:15:16.142Z,10.93
2019-01-19T06:17:44.675Z,11.20
2019-01-19T06:20:16.895Z,11.30
2019-01-19T06:22:45.484Z,9.60
2019-01-19T06:25:15.252Z,11.90
2019-01-19T06:27:43.711Z,11.30
2019-01-19T06:30:17.854Z,9.30
2019-01-19T06:32:46.408Z,10.03
2019-01-19T06:35:14.859Z,10.83
2019-01-19T06:37:43.356Z,11.60
2019-01-19T06:40:14.027Z,10.83
2019-01-19T06:42:42.576Z,12.47
2019-01-19T06:45:13.715Z,9.87
2019-01-19T06:47:42.163Z,10.90
2019-01-19T06:50:13.503Z,10.17
2019-01-19T06:52:42.031Z,10.97
2019-01-19T06:55:12.879Z,9.60
2019-01-19T06:57:41.404Z,10.07
2019-01-19T07:00:14.857Z,10.57
2019-01-19T07:02:43.449Z,10.20
2019-01-19T07:05:12.207Z,10.40
2019-01-19T07:07:40.725Z,10.67
2019-01-19T07:10:17.947Z,11.57
2019-01-19T07:12:46.475Z,11.27
2019-01-19T07:15:15.142Z,9.27
2019-01-19T07:17:43.668Z,9.23
2019-01-19T07:20:18.135Z,9.20
2019-01-19T07:22:46.667Z,9.07
2019-01-19T07:25:15.252Z,8.23
2019-01-19T07:27:43.743Z,8.17
2019-01-19T07:30:14.343Z,9.93
2019-01-19T07:32:42.898Z,9.10
2019-01-19T07:35:11.687Z,9.27
2019-01-19T07:37:40.140Z,11.23
2019-01-19T07:40:11.516Z,9.70
2019-01-19T07:42:41.468Z,11.50
2019-01-19T07:45:12.161Z,7.67
2019-01-19T07:47:41.324Z,9.80
2019-01-19T07:50:12.519Z,9.87
2019-01-19T07:52:41.079Z,8.80
2019-01-19T07:55:11.892Z,8.77
2019-01-19T07:57:39.978Z,9.00
2019-01-19T08:00:14.455Z,7.87
2019-01-19T08:02:42.944Z,7.87
2019-01-19T08:05:11.226Z,9.00
2019-01-19T08:07:39.652Z,8.30
2019-01-19T08:10:09.299Z,9.50
2019-01-19T08:12:37.816Z,7.13
2019-01-19T08:15:12.264Z,10.87
2019-01-19T08:17:40.860Z,7.17
2019-01-19T08:20:12.213Z,10.03
2019-01-19T08:22:40.389Z,10.97
2019-01-19T08:25:10.691Z,7.83
2019-01-19T08:27:38.871Z,8.07
2019-01-19T08:30:08.536Z,7.97
2019-01-19T08:32:36.959Z,7.87
2019-01-19T08:35:08.284Z,7.10
2019-01-19T08:37:36.543Z,7.57
2019-01-19T08:40:10.783Z,7.53
2019-01-19T08:42:39.174Z,9.37
2019-01-19T08:45:10.317Z,12.73
2019-01-19T08:47:38.771Z,6.33
2019-01-19T08:50:09.972Z,7.90
2019-01-19T08:52:38.518Z,8.43
2019-01-19T08:55:08.692Z,7.00
2019-01-19T08:57:37.145Z,8.00
2019-01-19T09:00:08.727Z,6.97
2019-01-19T09:02:36.859Z,8.13
2019-01-19T09:05:12.835Z,8.60
2019-01-19T09:07:41.336Z,5.67
2019-01-19T09:10:12.942Z,6.40
2019-01-19T09:12:41.162Z,6.30
2019-01-19T09:15:12.663Z,5.63
2019-01-19T09:17:40.888Z,6.20
2019-01-19T09:20:10.662Z,6.50
2019-01-19T09:22:38.777Z,6.73
2019-01-19T09:25:10.435Z,7.80
2019-01-19T09:27:39.021Z,9.07
2019-01-19T09:30:10.522Z,6.97
2019-01-19T09:32:39.100Z,6.70
2019-01-19T09:35:09.814Z,6.80
2019-01-19T09:37:40.907Z,8.83
2019-01-19T09:40:14.073Z,8.00
2019-01-19T09:42:42.578Z,6.53
2019-01-19T09:45:13.809Z,8.70
2019-01-19T09:47:42.019Z,8.87
2019-01-19T09:50:18.635Z,14.37
2019-01-19T09:52:47.142Z,8.13
2019-01-19T09:55:15.564Z,8.30
2019-01-19T09:57:44.150Z,11.00
2019-01-19T10:00:18.048Z,8.20
2019-01-19T10:02:46.530Z,7.50
2019-01-19T10:05:17.724Z,6.13
2019-01-19T10:07:48.742Z,8.60
2019-01-19T10:10:16.477Z,7.77
2019-01-19T10:12:45.020Z,7.70
2019-01-19T10:15:15.638Z,5.70
2019-01-19T10:17:44.146Z,7.87
2019-01-19T10:20:16.556Z,7.57
2019-01-19T10:22:45.076Z,7.20
2019-01-19T10:25:15.346Z,6.73
2019-01-19T10:27:44.142Z,7.23
2019-01-19T10:30:17.776Z,9.67
2019-01-19T10:32:46.423Z,6.17
2019-01-19T10:35:15.024Z,7.63
2019-01-19T10:37:43.515Z,8.93
2019-01-19T10:40:13.022Z,7.23
2019-01-19T10:42:41.438Z,9.57
2019-01-19T10:45:12.896Z,11.07
2019-01-19T10:47:41.079Z,9.80
2019-01-19T10:50:10.975Z,9.23
2019-01-19T10:52:39.091Z,10.00
2019-01-19T10:55:09.364Z,10.80
2019-01-19T10:57:37.890Z,8.83
2019-01-19T11:00:10.458Z,8.83
2019-01-19T11:02:38.664Z,6.47
2019-01-19T11:05:11.016Z,7.07
2019-01-19T11:07:40.139Z,6.17
2019-01-19T11:10:11.656Z,8.17
2019-01-19T11:12:40.149Z,8.70
2019-01-19T11:15:11.838Z,10.67
2019-01-19T11:17:40.036Z,7.97
2019-01-19T11:20:14.471Z,7.10
2019-01-19T11:22:42.908Z,5.73
2019-01-19T11:25:12.277Z,7.53
2019-01-19T11:27:40.847Z,9.03
2019-01-19T11:30:17.903Z,6.17
2019-01-19T11:32:46.086Z,7.10
2019-01-19T11:35:14.971Z,6.17
2019-01-19T11:37:43.183Z,9.07
2019-01-19T11:40:17.024Z,8.40
2019-01-19T11:42:45.214Z,9.93
2019-01-19T11:45:14.708Z,6.00
2019-01-19T11:47:43.302Z,5.60
2019-01-19T11:50:12.487Z,4.57
2019-01-19T11:52:40.939Z,7.77
2019-01-19T11:55:13.125Z,8.30
2019-01-19T11:57:41.562Z,5.70
2019-01-19T12:00:14.389Z,5.40
2019-01-19T12:02:42.572Z,7.10
2019-01-19T12:05:11.169Z,4.60
2019-01-19T12:07:39.624Z,7.03
2019-01-19T12:10:11.147Z,5.77
2019-01-19T12:12:39.635Z,8.87
2019-01-19T12:15:09.428Z,8.27
2019-01-19T12:17:37.509Z,7.83
2019-01-19T12:20:07.174Z,6.23
2019-01-19T12:22:35.607Z,4.87
2019-01-19T12:25:05.792Z,4.73
2019-01-19T12:27:34.236Z,4.97
2019-01-19T12:30:02.370Z,5.77
2019-01-19T12:32:30.807Z,7.47
2019-01-19T12:34:59.339Z,6.00
2019-01-19T12:37:27.779Z,6.13
2019-01-19T12:39:55.933Z,3.80
2019-01-19T12:42:24.362Z,6.07
